sensor_id;sensor_type;location;lat;lon;timestamp;P1;durP1;ratioP1;P2;durP2;ratioP2
37657;SDS011;23500;53.268;8.308;2023-04-15T00:01:23;3.40;;;1.67;;
37657;SDS011;23500;53.268;8.308;2023-04-15T00:03:50;2.17;;;1.35;;
37657;SDS011;23500;53.268;8.308;2023-04-15T00:06:18;1.65;;;1.55;;
37657;SDS011;23500;53.268;8.308;2023-04-15T00:08:45;1.80;;;1.35;;
37657;SDS011;23500;53.268;8.308;2023-04-15T00:11:11;2.95;;;1.70;;
37657;SDS011;23500;53.268;8.308;2023-04-15T00:13:37;3.88;;;1.90;;
37657;SDS011;23500;53.268;8.308;2023-04-15T00:16:04;1.75;;;1.60;;
37657;SDS011;23500;53.268;8.308;2023-04-15T00:18:31;2.47;;;1.60;;
37657;SDS011;23500;53.268;8.308;2023-04-15T00:20:57;1.88;;;1.55;;
37657;SDS011;23500;53.268;8.308;2023-04-15T00:23:23;2.97;;;1.88;;
37657;SDS011;23500;53.268;8.308;2023-04-15T00:25:49;2.40;;;1.98;;
37657;SDS011;23500;53.268;8.308;2023-04-15T00:28:16;3.13;;;1.90;;
37657;SDS011;23500;53.268;8.308;2023-04-15T00:30:42;2.83;;;1.75;;
37657;SDS011;23500;53.268;8.308;2023-04-15T00:33:07;1.88;;;1.50;;
37657;SDS011;23500;53.268;8.308;2023-04-15T00:35:33;2.03;;;1.65;;
37657;SDS011;23500;53.268;8.308;2023-04-15T00:38:01;2.60;;;1.98;;
37657;SDS011;23500;53.268;8.308;2023-04-15T00:40:27;2.15;;;1.60;;
37657;SDS011;23500;53.268;8.308;2023-04-15T00:42:53;2.45;;;1.60;;
37657;SDS011;23500;53.268;8.308;2023-04-15T00:45:19;3.45;;;1.80;;
37657;SDS011;23500;53.268;8.308;2023-04-15T00:47:44;2.00;;;1.80;;
37657;SDS011;23500;53.268;8.308;2023-04-15T00:50:10;2.30;;;1.70;;
37657;SDS011;23500;53.268;8.308;2023-04-15T00:52:36;1.73;;;1.60;;
37657;SDS011;23500;53.268;8.308;2023-04-15T00:55:03;2.85;;;1.70;;
37657;SDS011;23500;53.268;8.308;2023-04-15T00:57:29;2.03;;;1.70;;
37657;SDS011;23500;53.268;8.308;2023-04-15T00:59:55;2.03;;;1.67;;
37657;SDS011;23500;53.268;8.308;2023-04-15T01:02:21;3.72;;;1.73;;
37657;SDS011;23500;53.268;8.308;2023-04-15T01:04:48;2.10;;;1.40;;
37657;SDS011;23500;53.268;8.308;2023-04-15T01:07:14;2.55;;;1.60;;
37657;SDS011;23500;53.268;8.308;2023-04-15T01:09:40;2.35;;;1.60;;
37657;SDS011;23500;53.268;8.308;2023-04-15T01:12:06;1.88;;;1.63;;
37657;SDS011;23500;53.268;8.308;2023-04-15T01:14:34;3.58;;;1.67;;
37657;SDS011;23500;53.268;8.308;2023-04-15T01:17:00;2.40;;;1.80;;
37657;SDS011;23500;53.268;8.308;2023-04-15T01:19:26;2.58;;;1.60;;
37657;SDS011;23500;53.268;8.308;2023-04-15T01:21:52;2.50;;;1.58;;
37657;SDS011;23500;53.268;8.308;2023-04-15T01:24:18;2.03;;;1.63;;
37657;SDS011;23500;53.268;8.308;2023-04-15T01:26:44;2.05;;;1.85;;
37657;SDS011;23500;53.268;8.308;2023-04-15T01:29:10;2.28;;;1.90;;
37657;SDS011;23500;53.268;8.308;2023-04-15T01:31:36;1.90;;;1.70;;
37657;SDS011;23500;53.268;8.308;2023-04-15T01:34:01;3.60;;;1.80;;
37657;SDS011;23500;53.268;8.308;2023-04-15T01:36:27;1.98;;;1.60;;
37657;SDS011;23500;53.268;8.308;2023-04-15T01:38:54;1.50;;;1.40;;
37657;SDS011;23500;53.268;8.308;2023-04-15T01:41:25;2.55;;;1.60;;
37657;SDS011;23500;53.268;8.308;2023-04-15T01:43:51;1.85;;;1.75;;
37657;SDS011;23500;53.268;8.308;2023-04-15T01:46:17;2.55;;;2.00;;
37657;SDS011;23500;53.268;8.308;2023-04-15T01:48:43;2.78;;;1.88;;
37657;SDS011;23500;53.268;8.308;2023-04-15T01:51:08;2.15;;;1.85;;
37657;SDS011;23500;53.268;8.308;2023-04-15T01:53:34;3.10;;;1.83;;
37657;SDS011;23500;53.268;8.308;2023-04-15T01:56:00;2.08;;;1.70;;
37657;SDS011;23500;53.268;8.308;2023-04-15T01:58:26;1.83;;;1.73;;
37657;SDS011;23500;53.268;8.308;2023-04-15T02:00:51;2.08;;;1.80;;
37657;SDS011;23500;53.268;8.308;2023-04-15T02:03:17;2.03;;;1.77;;
37657;SDS011;23500;53.268;8.308;2023-04-15T02:05:43;2.10;;;1.90;;
37657;SDS011;23500;53.268;8.308;2023-04-15T02:08:09;2.13;;;1.88;;
37657;SDS011;23500;53.268;8.308;2023-04-15T02:10:36;1.77;;;1.65;;
37657;SDS011;23500;53.268;8.308;2023-04-15T02:13:01;2.05;;;1.70;;
37657;SDS011;23500;53.268;8.308;2023-04-15T02:15:27;3.63;;;1.80;;
37657;SDS011;23500;53.268;8.308;2023-04-15T02:17:53;1.80;;;1.67;;
37657;SDS011;23500;53.268;8.308;2023-04-15T02:20:19;2.72;;;1.83;;
37657;SDS011;23500;53.268;8.308;2023-04-15T02:22:45;2.53;;;1.63;;
37657;SDS011;23500;53.268;8.308;2023-04-15T02:25:12;3.15;;;1.88;;
37657;SDS011;23500;53.268;8.308;2023-04-15T02:27:38;2.22;;;1.80;;
37657;SDS011;23500;53.268;8.308;2023-04-15T02:30:04;1.83;;;1.65;;
37657;SDS011;23500;53.268;8.308;2023-04-15T02:32:31;2.00;;;1.83;;
37657;SDS011;23500;53.268;8.308;2023-04-15T02:35:01;1.75;;;1.65;;
37657;SDS011;23500;53.268;8.308;2023-04-15T02:37:30;2.30;;;2.10;;
37657;SDS011;23500;53.268;8.308;2023-04-15T02:39:56;2.25;;;1.75;;
37657;SDS011;23500;53.268;8.308;2023-04-15T02:42:22;2.67;;;1.95;;
37657;SDS011;23500;53.268;8.308;2023-04-15T02:44:51;2.15;;;1.88;;
37657;SDS011;23500;53.268;8.308;2023-04-15T02:47:18;1.88;;;1.63;;
37657;SDS011;23500;53.268;8.308;2023-04-15T02:49:44;2.00;;;1.70;;
37657;SDS011;23500;53.268;8.308;2023-04-15T02:52:10;1.98;;;1.67;;
37657;SDS011;23500;53.268;8.308;2023-04-15T02:54:36;2.00;;;1.73;;
37657;SDS011;23500;53.268;8.308;2023-04-15T02:57:01;1.98;;;1.60;;
37657;SDS011;23500;53.268;8.308;2023-04-15T02:59:30;2.22;;;1.70;;
37657;SDS011;23500;53.268;8.308;2023-04-15T03:01:55;2.28;;;1.80;;
37657;SDS011;23500;53.268;8.308;2023-04-15T03:04:24;2.05;;;1.77;;
37657;SDS011;23500;53.268;8.308;2023-04-15T03:06:50;2.22;;;1.70;;
37657;SDS011;23500;53.268;8.308;2023-04-15T03:09:16;2.63;;;1.90;;
37657;SDS011;23500;53.268;8.308;2023-04-15T03:11:42;2.97;;;1.73;;
37657;SDS011;23500;53.268;8.308;2023-04-15T03:14:07;2.38;;;1.73;;
37657;SDS011;23500;53.268;8.308;2023-04-15T03:16:33;1.65;;;1.50;;
37657;SDS011;23500;53.268;8.308;2023-04-15T03:18:59;1.60;;;1.50;;
37657;SDS011;23500;53.268;8.308;2023-04-15T03:21:24;1.80;;;1.60;;
37657;SDS011;23500;53.268;8.308;2023-04-15T03:23:50;1.88;;;1.70;;
37657;SDS011;23500;53.268;8.308;2023-04-15T03:26:22;2.90;;;1.75;;
37657;SDS011;23500;53.268;8.308;2023-04-15T03:28:56;1.88;;;1.77;;
37657;SDS011;23500;53.268;8.308;2023-04-15T03:31:22;2.00;;;1.80;;
37657;SDS011;23500;53.268;8.308;2023-04-15T03:33:48;2.08;;;1.60;;
37657;SDS011;23500;53.268;8.308;2023-04-15T03:36:13;2.10;;;1.90;;
37657;SDS011;23500;53.268;8.308;2023-04-15T03:38:39;1.85;;;1.63;;
37657;SDS011;23500;53.268;8.308;2023-04-15T03:41:05;1.90;;;1.70;;
37657;SDS011;23500;53.268;8.308;2023-04-15T03:43:31;1.70;;;1.58;;
37657;SDS011;23500;53.268;8.308;2023-04-15T03:45:57;1.88;;;1.58;;
37657;SDS011;23500;53.268;8.308;2023-04-15T03:48:22;1.70;;;1.60;;
37657;SDS011;23500;53.268;8.308;2023-04-15T03:50:48;1.90;;;1.63;;
37657;SDS011;23500;53.268;8.308;2023-04-15T03:53:14;1.90;;;1.50;;
37657;SDS011;23500;53.268;8.308;2023-04-15T03:55:40;2.40;;;1.60;;
37657;SDS011;23500;53.268;8.308;2023-04-15T03:58:05;2.10;;;1.75;;
37657;SDS011;23500;53.268;8.308;2023-04-15T04:00:31;1.75;;;1.50;;
37657;SDS011;23500;53.268;8.308;2023-04-15T04:02:57;2.13;;;1.70;;
37657;SDS011;23500;53.268;8.308;2023-04-15T04:05:22;1.70;;;1.58;;
37657;SDS011;23500;53.268;8.308;2023-04-15T04:07:48;2.85;;;1.83;;
37657;SDS011;23500;53.268;8.308;2023-04-15T04:10:14;3.60;;;1.70;;
37657;SDS011;23500;53.268;8.308;2023-04-15T04:12:39;1.55;;;1.45;;
37657;SDS011;23500;53.268;8.308;2023-04-15T04:15:05;2.67;;;1.85;;
37657;SDS011;23500;53.268;8.308;2023-04-15T04:17:32;2.40;;;1.75;;
37657;SDS011;23500;53.268;8.308;2023-04-15T04:19:57;1.67;;;1.50;;
37657;SDS011;23500;53.268;8.308;2023-04-15T04:22:23;2.22;;;1.77;;
37657;SDS011;23500;53.268;8.308;2023-04-15T04:24:49;1.98;;;1.65;;
37657;SDS011;23500;53.268;8.308;2023-04-15T04:27:15;1.80;;;1.67;;
37657;SDS011;23500;53.268;8.308;2023-04-15T04:29:41;1.85;;;1.67;;
37657;SDS011;23500;53.268;8.308;2023-04-15T04:32:06;1.60;;;1.50;;
37657;SDS011;23500;53.268;8.308;2023-04-15T04:34:32;1.85;;;1.75;;
37657;SDS011;23500;53.268;8.308;2023-04-15T04:36:58;1.70;;;1.60;;
37657;SDS011;23500;53.268;8.308;2023-04-15T04:39:23;1.90;;;1.80;;
37657;SDS011;23500;53.268;8.308;2023-04-15T04:41:49;1.67;;;1.52;;
37657;SDS011;23500;53.268;8.308;2023-04-15T04:44:16;1.92;;;1.48;;
37657;SDS011;23500;53.268;8.308;2023-04-15T04:46:42;1.92;;;1.73;;
37657;SDS011;23500;53.268;8.308;2023-04-15T04:49:07;2.72;;;1.70;;
37657;SDS011;23500;53.268;8.308;2023-04-15T04:51:33;1.92;;;1.70;;
37657;SDS011;23500;53.268;8.308;2023-04-15T04:53:59;2.13;;;1.58;;
37657;SDS011;23500;53.268;8.308;2023-04-15T04:56:25;1.40;;;1.30;;
37657;SDS011;23500;53.268;8.308;2023-04-15T04:58:51;2.08;;;1.65;;
37657;SDS011;23500;53.268;8.308;2023-04-15T05:01:16;2.60;;;1.60;;
37657;SDS011;23500;53.268;8.308;2023-04-15T05:03:42;1.60;;;1.50;;
37657;SDS011;23500;53.268;8.308;2023-04-15T05:06:08;2.70;;;1.88;;
37657;SDS011;23500;53.268;8.308;2023-04-15T05:08:34;1.67;;;1.48;;
37657;SDS011;23500;53.268;8.308;2023-04-15T05:11:00;2.80;;;1.42;;
37657;SDS011;23500;53.268;8.308;2023-04-15T05:13:27;1.75;;;1.52;;
37657;SDS011;23500;53.268;8.308;2023-04-15T05:15:54;1.70;;;1.23;;
37657;SDS011;23500;53.268;8.308;2023-04-15T05:18:20;1.85;;;1.20;;
37657;SDS011;23500;53.268;8.308;2023-04-15T05:20:45;1.63;;;1.42;;
37657;SDS011;23500;53.268;8.308;2023-04-15T05:23:11;1.33;;;1.23;;
37657;SDS011;23500;53.268;8.308;2023-04-15T05:25:37;1.30;;;1.20;;
37657;SDS011;23500;53.268;8.308;2023-04-15T05:28:02;1.40;;;1.30;;
37657;SDS011;23500;53.268;8.308;2023-04-15T05:30:28;1.52;;;1.38;;
37657;SDS011;23500;53.268;8.308;2023-04-15T05:32:54;1.40;;;1.10;;
37657;SDS011;23500;53.268;8.308;2023-04-15T05:35:20;1.25;;;1.15;;
37657;SDS011;23500;53.268;8.308;2023-04-15T05:37:45;1.13;;;1.00;;
37657;SDS011;23500;53.268;8.308;2023-04-15T05:40:11;2.13;;;1.20;;
37657;SDS011;23500;53.268;8.308;2023-04-15T05:42:37;1.33;;;1.13;;
37657;SDS011;23500;53.268;8.308;2023-04-15T05:45:03;1.83;;;1.20;;
37657;SDS011;23500;53.268;8.308;2023-04-15T05:47:33;1.50;;;1.40;;
37657;SDS011;23500;53.268;8.308;2023-04-15T05:50:02;1.42;;;1.20;;
37657;SDS011;23500;53.268;8.308;2023-04-15T05:52:28;1.73;;;1.10;;
37657;SDS011;23500;53.268;8.308;2023-04-15T05:54:55;1.52;;;1.30;;
37657;SDS011;23500;53.268;8.308;2023-04-15T05:57:21;1.33;;;1.23;;
37657;SDS011;23500;53.268;8.308;2023-04-15T05:59:47;1.50;;;1.40;;
37657;SDS011;23500;53.268;8.308;2023-04-15T06:02:13;1.40;;;1.30;;
37657;SDS011;23500;53.268;8.308;2023-04-15T06:04:39;1.50;;;1.40;;
37657;SDS011;23500;53.268;8.308;2023-04-15T06:07:05;2.03;;;1.48;;
37657;SDS011;23500;53.268;8.308;2023-04-15T06:09:30;1.92;;;1.83;;
37657;SDS011;23500;53.268;8.308;2023-04-15T06:11:56;2.85;;;1.95;;
37657;SDS011;23500;53.268;8.308;2023-04-15T06:14:23;1.50;;;1.40;;
37657;SDS011;23500;53.268;8.308;2023-04-15T06:16:48;2.15;;;1.88;;
37657;SDS011;23500;53.268;8.308;2023-04-15T06:19:14;2.17;;;2.00;;
37657;SDS011;23500;53.268;8.308;2023-04-15T06:21:40;2.15;;;1.90;;
37657;SDS011;23500;53.268;8.308;2023-04-15T06:24:05;1.70;;;1.60;;
37657;SDS011;23500;53.268;8.308;2023-04-15T06:26:32;1.77;;;1.58;;
37657;SDS011;23500;53.268;8.308;2023-04-15T06:28:57;1.85;;;1.75;;
37657;SDS011;23500;53.268;8.308;2023-04-15T06:31:23;1.77;;;1.63;;
37657;SDS011;23500;53.268;8.308;2023-04-15T06:33:48;2.42;;;2.00;;
37657;SDS011;23500;53.268;8.308;2023-04-15T06:36:14;2.25;;;1.60;;
37657;SDS011;23500;53.268;8.308;2023-04-15T06:38:40;2.72;;;1.75;;
37657;SDS011;23500;53.268;8.308;2023-04-15T06:41:06;1.80;;;1.60;;
37657;SDS011;23500;53.268;8.308;2023-04-15T06:43:31;1.40;;;1.30;;
37657;SDS011;23500;53.268;8.308;2023-04-15T06:45:57;1.80;;;1.70;;
37657;SDS011;23500;53.268;8.308;2023-04-15T06:48:23;1.80;;;1.60;;
37657;SDS011;23500;53.268;8.308;2023-04-15T06:50:49;2.17;;;1.80;;
37657;SDS011;23500;53.268;8.308;2023-04-15T06:53:14;1.85;;;1.60;;
37657;SDS011;23500;53.268;8.308;2023-04-15T06:55:40;1.95;;;1.60;;
37657;SDS011;23500;53.268;8.308;2023-04-15T06:58:06;1.83;;;1.63;;
37657;SDS011;23500;53.268;8.308;2023-04-15T07:00:32;1.60;;;1.50;;
37657;SDS011;23500;53.268;8.308;2023-04-15T07:02:58;2.90;;;1.52;;
37657;SDS011;23500;53.268;8.308;2023-04-15T07:05:28;2.00;;;1.70;;
37657;SDS011;23500;53.268;8.308;2023-04-15T07:07:54;2.85;;;1.75;;
37657;SDS011;23500;53.268;8.308;2023-04-15T07:10:21;2.33;;;1.67;;
37657;SDS011;23500;53.268;8.308;2023-04-15T07:12:47;2.75;;;1.80;;
37657;SDS011;23500;53.268;8.308;2023-04-15T07:15:13;2.03;;;1.50;;
37657;SDS011;23500;53.268;8.308;2023-04-15T07:17:39;2.25;;;1.63;;
37657;SDS011;23500;53.268;8.308;2023-04-15T07:20:06;1.65;;;1.50;;
37657;SDS011;23500;53.268;8.308;2023-04-15T07:22:32;1.90;;;1.70;;
37657;SDS011;23500;53.268;8.308;2023-04-15T07:24:58;2.70;;;1.60;;
37657;SDS011;23500;53.268;8.308;2023-04-15T07:27:23;1.85;;;1.67;;
37657;SDS011;23500;53.268;8.308;2023-04-15T07:29:49;5.00;;;1.90;;
37657;SDS011;23500;53.268;8.308;2023-04-15T07:32:16;3.08;;;1.58;;
37657;SDS011;23500;53.268;8.308;2023-04-15T07:34:42;1.88;;;1.50;;
37657;SDS011;23500;53.268;8.308;2023-04-15T07:37:08;1.35;;;1.25;;
37657;SDS011;23500;53.268;8.308;2023-04-15T07:39:34;2.03;;;1.52;;
37657;SDS011;23500;53.268;8.308;2023-04-15T07:41:59;2.63;;;1.55;;
37657;SDS011;23500;53.268;8.308;2023-04-15T07:44:26;1.88;;;1.65;;
37657;SDS011;23500;53.268;8.308;2023-04-15T07:46:52;2.65;;;1.73;;
37657;SDS011;23500;53.268;8.308;2023-04-15T07:49:17;3.85;;;1.60;;
37657;SDS011;23500;53.268;8.308;2023-04-15T07:51:45;3.58;;;1.75;;
37657;SDS011;23500;53.268;8.308;2023-04-15T07:54:11;2.17;;;1.80;;
37657;SDS011;23500;53.268;8.308;2023-04-15T07:56:36;1.48;;;1.38;;
37657;SDS011;23500;53.268;8.308;2023-04-15T07:59:02;2.85;;;1.60;;
37657;SDS011;23500;53.268;8.308;2023-04-15T08:01:29;2.95;;;1.42;;
37657;SDS011;23500;53.268;8.308;2023-04-15T08:03:55;2.28;;;1.60;;
37657;SDS011;23500;53.268;8.308;2023-04-15T08:06:21;1.50;;;1.40;;
37657;SDS011;23500;53.268;8.308;2023-04-15T08:08:47;1.52;;;1.42;;
37657;SDS011;23500;53.268;8.308;2023-04-15T08:11:13;3.28;;;1.48;;
37657;SDS011;23500;53.268;8.308;2023-04-15T08:13:38;2.25;;;1.40;;
37657;SDS011;23500;53.268;8.308;2023-04-15T08:18:59;1.40;;;1.30;;
37657;SDS011;23500;53.268;8.308;2023-04-15T08:21:25;1.42;;;1.30;;
37657;SDS011;23500;53.268;8.308;2023-04-15T08:23:51;2.42;;;1.65;;
37657;SDS011;23500;53.268;8.308;2023-04-15T08:26:18;2.10;;;1.50;;
37657;SDS011;23500;53.268;8.308;2023-04-15T08:28:45;2.28;;;1.65;;
37657;SDS011;23500;53.268;8.308;2023-04-15T08:31:11;3.35;;;1.50;;
37657;SDS011;23500;53.268;8.308;2023-04-15T08:33:41;1.90;;;1.42;;
37657;SDS011;23500;53.268;8.308;2023-04-15T08:36:07;5.18;;;1.50;;
37657;SDS011;23500;53.268;8.308;2023-04-15T08:38:33;2.55;;;1.45;;
37657;SDS011;23500;53.268;8.308;2023-04-15T08:41:02;3.47;;;1.45;;
37657;SDS011;23500;53.268;8.308;2023-04-15T08:43:34;2.10;;;1.40;;
37657;SDS011;23500;53.268;8.308;2023-04-15T08:46:04;1.60;;;1.42;;
37657;SDS011;23500;53.268;8.308;2023-04-15T08:48:31;4.70;;;1.60;;
37657;SDS011;23500;53.268;8.308;2023-04-15T08:50:58;2.63;;;1.40;;
37657;SDS011;23500;53.268;8.308;2023-04-15T08:53:25;5.95;;;1.67;;
37657;SDS011;23500;53.268;8.308;2023-04-15T08:55:52;8.00;;;2.40;;
37657;SDS011;23500;53.268;8.308;2023-04-15T08:58:19;11.60;;;3.00;;
37657;SDS011;23500;53.268;8.308;2023-04-15T09:00:45;6.72;;;2.95;;
37657;SDS011;23500;53.268;8.308;2023-04-15T09:03:11;8.50;;;2.95;;
37657;SDS011;23500;53.268;8.308;2023-04-15T09:05:37;15.40;;;3.25;;
37657;SDS011;23500;53.268;8.308;2023-04-15T09:08:03;12.40;;;3.58;;
37657;SDS011;23500;53.268;8.308;2023-04-15T09:10:30;14.77;;;4.28;;
37657;SDS011;23500;53.268;8.308;2023-04-15T09:12:56;15.63;;;4.18;;
37657;SDS011;23500;53.268;8.308;2023-04-15T09:15:26;12.95;;;3.85;;
37657;SDS011;23500;53.268;8.308;2023-04-15T09:17:53;15.73;;;4.78;;
37657;SDS011;23500;53.268;8.308;2023-04-15T09:20:20;13.68;;;4.53;;
37657;SDS011;23500;53.268;8.308;2023-04-15T09:22:47;16.20;;;4.88;;
37657;SDS011;23500;53.268;8.308;2023-04-15T09:27:47;15.77;;;4.82;;
37657;SDS011;23500;53.268;8.308;2023-04-15T09:30:14;18.92;;;5.13;;
37657;SDS011;23500;53.268;8.308;2023-04-15T09:35:34;16.80;;;5.40;;
37657;SDS011;23500;53.268;8.308;2023-04-15T09:38:04;15.63;;;4.78;;
37657;SDS011;23500;53.268;8.308;2023-04-15T09:40:32;17.98;;;4.75;;
37657;SDS011;23500;53.268;8.308;2023-04-15T09:43:03;17.90;;;5.00;;
37657;SDS011;23500;53.268;8.308;2023-04-15T09:45:29;14.20;;;5.40;;
37657;SDS011;23500;53.268;8.308;2023-04-15T09:47:56;17.85;;;5.28;;
37657;SDS011;23500;53.268;8.308;2023-04-15T09:50:26;16.15;;;4.90;;
37657;SDS011;23500;53.268;8.308;2023-04-15T09:52:55;19.15;;;5.07;;
37657;SDS011;23500;53.268;8.308;2023-04-15T09:55:21;16.75;;;5.18;;
37657;SDS011;23500;53.268;8.308;2023-04-15T09:57:47;15.80;;;5.07;;
37657;SDS011;23500;53.268;8.308;2023-04-15T10:00:12;20.70;;;5.53;;
37657;SDS011;23500;53.268;8.308;2023-04-15T10:02:39;17.08;;;5.22;;
37657;SDS011;23500;53.268;8.308;2023-04-15T10:05:06;17.58;;;4.90;;
37657;SDS011;23500;53.268;8.308;2023-04-15T10:07:37;18.08;;;5.50;;
37657;SDS011;23500;53.268;8.308;2023-04-15T10:10:05;18.08;;;5.38;;
37657;SDS011;23500;53.268;8.308;2023-04-15T10:12:31;13.88;;;5.60;;
37657;SDS011;23500;53.268;8.308;2023-04-15T10:14:58;15.07;;;5.50;;
37657;SDS011;23500;53.268;8.308;2023-04-15T10:17:28;19.58;;;5.18;;
37657;SDS011;23500;53.268;8.308;2023-04-15T10:20:01;16.00;;;5.07;;
37657;SDS011;23500;53.268;8.308;2023-04-15T10:22:28;11.05;;;4.80;;
37657;SDS011;23500;53.268;8.308;2023-04-15T10:24:54;14.68;;;4.90;;
37657;SDS011;23500;53.268;8.308;2023-04-15T10:27:21;17.52;;;6.05;;
37657;SDS011;23500;53.268;8.308;2023-04-15T10:29:50;17.17;;;5.60;;
37657;SDS011;23500;53.268;8.308;2023-04-15T10:32:19;16.85;;;5.45;;
37657;SDS011;23500;53.268;8.308;2023-04-15T10:34:49;18.27;;;5.60;;
37657;SDS011;23500;53.268;8.308;2023-04-15T10:37:49;17.55;;;5.25;;
37657;SDS011;23500;53.268;8.308;2023-04-15T10:40:24;13.95;;;4.93;;
37657;SDS011;23500;53.268;8.308;2023-04-15T10:42:52;17.95;;;5.38;;
37657;SDS011;23500;53.268;8.308;2023-04-15T10:45:19;14.88;;;5.20;;
37657;SDS011;23500;53.268;8.308;2023-04-15T10:47:44;12.70;;;4.97;;
37657;SDS011;23500;53.268;8.308;2023-04-15T10:50:10;15.35;;;5.28;;
37657;SDS011;23500;53.268;8.308;2023-04-15T10:52:39;13.85;;;5.20;;
37657;SDS011;23500;53.268;8.308;2023-04-15T10:55:30;15.63;;;5.07;;
37657;SDS011;23500;53.268;8.308;2023-04-15T10:57:59;13.90;;;5.28;;
37657;SDS011;23500;53.268;8.308;2023-04-15T11:00:30;12.25;;;4.70;;
37657;SDS011;23500;53.268;8.308;2023-04-15T11:02:57;14.48;;;4.88;;
37657;SDS011;23500;53.268;8.308;2023-04-15T11:08:06;14.80;;;4.88;;
37657;SDS011;23500;53.268;8.308;2023-04-15T11:12:59;12.55;;;4.68;;
37657;SDS011;23500;53.268;8.308;2023-04-15T11:15:41;15.20;;;4.30;;
37657;SDS011;23500;53.268;8.308;2023-04-15T11:23:20;10.43;;;4.38;;
37657;SDS011;23500;53.268;8.308;2023-04-15T11:25:56;12.75;;;4.47;;
37657;SDS011;23500;53.268;8.308;2023-04-15T11:28:26;12.50;;;4.60;;
37657;SDS011;23500;53.268;8.308;2023-04-15T11:30:53;13.02;;;4.68;;
37657;SDS011;23500;53.268;8.308;2023-04-15T11:33:20;12.95;;;5.18;;
37657;SDS011;23500;53.268;8.308;2023-04-15T11:35:46;13.57;;;5.10;;
37657;SDS011;23500;53.268;8.308;2023-04-15T11:38:12;15.25;;;4.93;;
37657;SDS011;23500;53.268;8.308;2023-04-15T11:40:40;14.75;;;4.57;;
37657;SDS011;23500;53.268;8.308;2023-04-15T11:43:07;11.25;;;4.32;;
37657;SDS011;23500;53.268;8.308;2023-04-15T11:45:47;11.65;;;4.18;;
37657;SDS011;23500;53.268;8.308;2023-04-15T11:48:15;11.73;;;4.63;;
37657;SDS011;23500;53.268;8.308;2023-04-15T11:50:41;10.93;;;4.60;;
37657;SDS011;23500;53.268;8.308;2023-04-15T11:53:08;10.65;;;3.97;;
37657;SDS011;23500;53.268;8.308;2023-04-15T12:00:53;12.27;;;4.63;;
37657;SDS011;23500;53.268;8.308;2023-04-15T12:03:25;14.43;;;4.63;;
37657;SDS011;23500;53.268;8.308;2023-04-15T12:11:20;13.85;;;4.35;;
37657;SDS011;23500;53.268;8.308;2023-04-15T12:13:55;10.88;;;4.82;;
37657;SDS011;23500;53.268;8.308;2023-04-15T12:16:23;10.30;;;4.30;;
37657;SDS011;23500;53.268;8.308;2023-04-15T12:18:52;11.73;;;4.60;;
37657;SDS011;23500;53.268;8.308;2023-04-15T12:21:23;12.02;;;4.40;;
37657;SDS011;23500;53.268;8.308;2023-04-15T12:23:50;12.60;;;4.65;;
37657;SDS011;23500;53.268;8.308;2023-04-15T12:26:18;10.07;;;3.90;;
37657;SDS011;23500;53.268;8.308;2023-04-15T12:29:15;9.27;;;3.63;;
37657;SDS011;23500;53.268;8.308;2023-04-15T12:31:54;9.15;;;3.60;;
37657;SDS011;23500;53.268;8.308;2023-04-15T12:34:28;8.55;;;3.70;;
37657;SDS011;23500;53.268;8.308;2023-04-15T12:36:55;10.27;;;4.22;;
37657;SDS011;23500;53.268;8.308;2023-04-15T12:39:23;9.25;;;3.88;;
37657;SDS011;23500;53.268;8.308;2023-04-15T12:41:49;8.73;;;4.25;;
37657;SDS011;23500;53.268;8.308;2023-04-15T12:44:16;12.27;;;4.70;;
37657;SDS011;23500;53.268;8.308;2023-04-15T12:46:42;10.07;;;4.05;;
37657;SDS011;23500;53.268;8.308;2023-04-15T12:49:08;9.10;;;3.72;;
37657;SDS011;23500;53.268;8.308;2023-04-15T12:51:33;7.70;;;4.20;;
37657;SDS011;23500;53.268;8.308;2023-04-15T12:53:59;10.68;;;4.35;;
37657;SDS011;23500;53.268;8.308;2023-04-15T12:56:25;6.88;;;3.88;;
37657;SDS011;23500;53.268;8.308;2023-04-15T12:58:51;10.70;;;3.90;;
37657;SDS011;23500;53.268;8.308;2023-04-15T13:01:16;12.05;;;4.43;;
37657;SDS011;23500;53.268;8.308;2023-04-15T13:03:42;9.65;;;3.97;;
37657;SDS011;23500;53.268;8.308;2023-04-15T13:06:08;10.77;;;4.57;;
37657;SDS011;23500;53.268;8.308;2023-04-15T13:08:34;8.75;;;4.53;;
37657;SDS011;23500;53.268;8.308;2023-04-15T13:11:00;8.15;;;4.65;;
37657;SDS011;23500;53.268;8.308;2023-04-15T13:13:25;9.45;;;4.35;;
37657;SDS011;23500;53.268;8.308;2023-04-15T13:15:51;7.50;;;4.38;;
37657;SDS011;23500;53.268;8.308;2023-04-15T13:18:17;10.00;;;4.47;;
37657;SDS011;23500;53.268;8.308;2023-04-15T13:20:43;8.30;;;4.30;;
37657;SDS011;23500;53.268;8.308;2023-04-15T13:23:09;8.05;;;4.00;;
37657;SDS011;23500;53.268;8.308;2023-04-15T13:25:34;8.73;;;4.30;;
37657;SDS011;23500;53.268;8.308;2023-04-15T13:28:00;10.60;;;4.68;;
37657;SDS011;23500;53.268;8.308;2023-04-15T13:30:26;8.35;;;4.30;;
37657;SDS011;23500;53.268;8.308;2023-04-15T13:32:52;10.07;;;4.75;;
37657;SDS011;23500;53.268;8.308;2023-04-15T13:35:18;8.82;;;5.57;;
37657;SDS011;23500;53.268;8.308;2023-04-15T13:37:45;9.18;;;5.78;;
37657;SDS011;23500;53.268;8.308;2023-04-15T13:40:11;11.05;;;5.70;;
37657;SDS011;23500;53.268;8.308;2023-04-15T13:42:37;8.95;;;5.55;;
37657;SDS011;23500;53.268;8.308;2023-04-15T13:45:02;8.43;;;5.70;;
37657;SDS011;23500;53.268;8.308;2023-04-15T13:47:28;8.73;;;5.32;;
37657;SDS011;23500;53.268;8.308;2023-04-15T13:49:54;8.88;;;5.00;;
37657;SDS011;23500;53.268;8.308;2023-04-15T13:52:21;7.75;;;5.30;;
37657;SDS011;23500;53.268;8.308;2023-04-15T13:54:47;7.97;;;5.22;;
37657;SDS011;23500;53.268;8.308;2023-04-15T13:57:13;8.98;;;4.97;;
37657;SDS011;23500;53.268;8.308;2023-04-15T13:59:38;8.13;;;4.85;;
37657;SDS011;23500;53.268;8.308;2023-04-15T14:02:04;8.32;;;5.30;;
37657;SDS011;23500;53.268;8.308;2023-04-15T14:04:30;7.57;;;5.00;;
37657;SDS011;23500;53.268;8.308;2023-04-15T14:06:56;9.10;;;5.88;;
37657;SDS011;23500;53.268;8.308;2023-04-15T14:09:22;7.93;;;5.25;;
37657;SDS011;23500;53.268;8.308;2023-04-15T14:11:51;7.78;;;5.30;;
37657;SDS011;23500;53.268;8.308;2023-04-15T14:14:17;7.68;;;5.07;;
37657;SDS011;23500;53.268;8.308;2023-04-15T14:16:42;9.43;;;5.35;;
37657;SDS011;23500;53.268;8.308;2023-04-15T14:19:08;10.35;;;5.80;;
37657;SDS011;23500;53.268;8.308;2023-04-15T14:21:34;7.97;;;5.95;;
37657;SDS011;23500;53.268;8.308;2023-04-15T14:23:59;7.90;;;5.35;;
37657;SDS011;23500;53.268;8.308;2023-04-15T14:26:25;9.90;;;5.95;;
37657;SDS011;23500;53.268;8.308;2023-04-15T14:28:51;8.90;;;5.60;;
37657;SDS011;23500;53.268;8.308;2023-04-15T14:31:17;8.40;;;5.70;;
37657;SDS011;23500;53.268;8.308;2023-04-15T14:33:43;8.40;;;5.45;;
37657;SDS011;23500;53.268;8.308;2023-04-15T14:36:10;8.93;;;5.60;;
37657;SDS011;23500;53.268;8.308;2023-04-15T14:38:36;9.18;;;5.20;;
37657;SDS011;23500;53.268;8.308;2023-04-15T14:41:05;7.50;;;5.90;;
37657;SDS011;23500;53.268;8.308;2023-04-15T14:43:32;8.18;;;5.65;;
37657;SDS011;23500;53.268;8.308;2023-04-15T14:45:58;8.50;;;5.35;;
37657;SDS011;23500;53.268;8.308;2023-04-15T14:48:24;8.70;;;5.60;;
37657;SDS011;23500;53.268;8.308;2023-04-15T14:50:50;8.63;;;5.22;;
37657;SDS011;23500;53.268;8.308;2023-04-15T14:53:16;9.55;;;6.43;;
37657;SDS011;23500;53.268;8.308;2023-04-15T14:55:42;8.88;;;6.13;;
37657;SDS011;23500;53.268;8.308;2023-04-15T14:58:08;12.80;;;6.82;;
37657;SDS011;23500;53.268;8.308;2023-04-15T15:00:34;10.60;;;7.45;;
37657;SDS011;23500;53.268;8.308;2023-04-15T15:03:00;11.15;;;6.75;;
37657;SDS011;23500;53.268;8.308;2023-04-15T15:05:26;8.65;;;6.60;;
37657;SDS011;23500;53.268;8.308;2023-04-15T15:07:52;8.55;;;7.20;;
37657;SDS011;23500;53.268;8.308;2023-04-15T15:10:17;10.60;;;7.18;;
37657;SDS011;23500;53.268;8.308;2023-04-15T15:12:43;14.02;;;9.05;;